| time (UTC) | temp F | wind direction | speed MPH | gust MPH | rain 1hr in | rain 24hr in | rain mn in | humidity % | barometer mb |
| 20260506033948 | 50 | 90 | 2.0 | 0.0 | 0.00 | 0.00 | 0.00 | 10 | 1004.7 |
| 20260506032924 | 50 | 90 | 2.0 | 0.0 | 0.00 | 0.00 | 0.00 | 10 | 1004.7 |
| 20260506031859 | 50 | 180 | 2.0 | 0.0 | 0.00 | 0.00 | 0.00 | 10 | 1004.6 |
| 20260506030834 | 50 | 0 | 1.0 | 0.0 | 0.00 | 0.00 | 0.00 | 10 | 1004.6 |
| 20260506023720 | 50 | 0 | 1.0 | 0.0 | 0.00 | 0.00 | 0.00 | 10 | 1004.8 |
| 20260506022655 | 50 | 45 | 1.0 | 0.0 | 0.00 | 0.00 | 0.00 | 10 | 1004.8 |
| 20260506021630 | 50 | 0 | 2.0 | 0.0 | 0.00 | 0.00 | 0.00 | 10 | 1004.8 |
| 20260506020605 | 50 | 180 | 1.0 | 0.0 | 0.00 | 0.00 | 0.00 | 10 | 1004.9 |
| 20260506015540 | 50 | 90 | 1.0 | 0.0 | 0.00 | 0.00 | 0.00 | 10 | 1004.9 |
| 20260506014516 | 50 | 90 | 2.0 | 0.0 | 0.00 | 0.00 | 0.00 | 10 | 1004.9 |
| 20260506013451 | 50 | 90 | 4.0 | 0.0 | 0.00 | 0.00 | 0.00 | 10 | 1005.0 |
| 20260506012426 | 50 | 90 | 1.0 | 0.0 | 0.00 | 0.00 | 0.00 | 10 | 1005.1 |
| 20260506011401 | 50 | 0 | 1.0 | 0.0 | 0.00 | 0.00 | 0.00 | 10 | 1005.3 |
| 20260506010336 | 50 | 45 | 1.0 | 0.0 | 0.00 | 0.00 | 0.00 | 10 | 1005.2 |
| 20260506005311 | 50 | 2.0 | 0.0 | 0.00 | 0.00 | 0.00 | 10 | 1005.3 | |
| 20260505235043 | 50 | 90 | 3.0 | 0.0 | 0.00 | 0.00 | 0.00 | 10 | 1005.8 |
| 20260505234018 | 50 | 180 | 1.0 | 0.0 | 0.00 | 0.00 | 0.00 | 10 | 1005.9 |
| 20260505231928 | 51 | 0 | 1.0 | 0.0 | 0.00 | 0.00 | 0.00 | 10 | 1005.8 |
| 20260505230903 | 51 | 90 | 1.0 | 0.0 | 0.00 | 0.00 | 0.00 | 10 | 1005.7 |
| 20260505224814 | 51 | 0 | 1.0 | 0.0 | 0.00 | 0.00 | 0.00 | 10 | 1005.6 |
| 20260505223749 | 51 | 45 | 1.0 | 0.0 | 0.00 | 0.00 | 0.00 | 10 | 1005.6 |
| 20260505222724 | 51 | 0 | 2.0 | 0.0 | 0.00 | 0.00 | 0.00 | 10 | 1005.6 |
| 20260505214545 | 50 | 0 | 1.0 | 0.0 | 0.00 | 0.00 | 0.00 | 10 | 1005.9 |
| 20260505212455 | 50 | 45 | 1.0 | 0.0 | 0.00 | 0.00 | 0.00 | 10 | 1006.0 |
| 20260505210406 | 51 | 0 | 0.0 | 0.0 | 0.00 | 0.00 | 0.00 | 10 | 1005.9 |
| 20260505204316 | 51 | 45 | 1.0 | 0.0 | 0.00 | 0.00 | 0.00 | 10 | 1006.1 |
| 20260505202226 | 50 | 0 | 1.0 | 0.0 | 0.00 | 0.00 | 0.00 | 10 | 1006.0 |
| 20260505201202 | 50 | 270 | 3.0 | 0.0 | 0.00 | 0.00 | 0.00 | 10 | 1006.1 |
| 20260505193022 | 50 | 45 | 0.0 | 0.0 | 0.01 | 0.00 | 0.00 | 10 | 1005.5 |
| 20260505191958 | 50 | 0 | 1.0 | 0.0 | 0.01 | 0.00 | 0.00 | 10 | 1005.5 |
| 20260505185908 | 50 | 90 | 2.0 | 0.0 | 0.01 | 0.00 | 0.00 | 10 | 1005.8 |
| 20260505184843 | 50 | 45 | 4.0 | 0.0 | 0.01 | 0.00 | 0.00 | 10 | 1005.6 |
| 20260505183818 | 50 | 45 | 2.0 | 0.0 | 0.00 | 0.00 | 0.00 | 10 | 1005.9 |
| 20260505182754 | 51 | 45 | 2.0 | 0.0 | 0.31 | 0.00 | 0.00 | 10 | 1006.2 |
| 20260505181729 | 51 | 45 | 1.0 | 0.0 | 0.27 | 0.00 | 0.00 | 10 | 1006.5 |
| 20260505180704 | 51 | 90 | 1.0 | 0.0 | 0.22 | 0.00 | 0.00 | 10 | 1006.8 |
| 20260505175639 | 51 | 90 | 2.0 | 0.0 | 0.18 | 0.00 | 0.00 | 10 | 1006.7 |
| 20260505174614 | 51 | 90 | 4.0 | 0.0 | 0.11 | 0.00 | 0.00 | 10 | 1006.7 |
| 20260505173550 | 52 | 45 | 4.0 | 0.0 | 0.00 | 0.00 | 0.00 | 10 | 1006.3 |
| 20260505172525 | 57 | 90 | 2.0 | 0.0 | 0.00 | 0.00 | 0.00 | 10 | 1005.6 |
| 20260505171500 | 58 | 45 | 1.0 | 0.0 | 0.00 | 0.00 | 0.00 | 10 | 1004.6 |
| 20260505170435 | 58 | 45 | 1.0 | 0.0 | 0.00 | 0.00 | 0.00 | 10 | 1004.7 |
| 20260505165410 | 58 | 135 | 4.0 | 0.0 | 0.00 | 0.00 | 0.00 | 10 | 1004.7 |
| 20260505164345 | 59 | 45 | 1.0 | 0.0 | 0.00 | 0.00 | 0.00 | 10 | 1004.8 |
| 20260505163321 | 59 | 45 | 2.0 | 0.0 | 0.00 | 0.00 | 0.00 | 10 | 1004.8 |
| 20260505162256 | 59 | 45 | 1.0 | 0.0 | 0.00 | 0.00 | 0.00 | 10 | 1005.1 |
| 20260505161231 | 59 | 45 | 2.0 | 0.0 | 0.00 | 0.00 | 0.00 | 10 | 1005.2 |
| 20260505160206 | 59 | 90 | 1.0 | 0.0 | 0.00 | 0.00 | 0.00 | 10 | 1005.3 |
| 20260505152027 | 59 | 0 | 1.0 | 0.0 | 0.05 | 0.00 | 0.00 | 10 | 1005.6 |
| 20260505151002 | 59 | 45 | 1.0 | 0.0 | 0.05 | 0.00 | 0.00 | 10 | 1005.7 |
| 20260505124416 | 69 | 45 | 2.0 | 0.0 | 0.00 | 0.00 | 0.00 | 75 | 1006.4 |
| 20260505123352 | 68 | 90 | 2.0 | 0.0 | 0.00 | 0.00 | 0.00 | 78 | 1006.5 |
| 20260505122327 | 67 | 45 | 2.0 | 0.0 | 0.00 | 0.00 | 0.00 | 79 | 1006.6 |
| 20260505121303 | 68 | 90 | 1.0 | 0.0 | 0.00 | 0.00 | 0.00 | 72 | 1006.7 |
| 20260505120238 | 70 | 90 | 2.0 | 0.0 | 0.00 | 0.00 | 0.00 | 72 | 1006.7 |
| 20260505115213 | 68 | 45 | 2.0 | 0.0 | 0.00 | 0.00 | 0.00 | 71 | 1006.8 |
| 20260505114149 | 66 | 45 | 1.0 | 0.0 | 0.00 | 0.00 | 0.00 | 74 | 1006.9 |
| 20260505113124 | 67 | 45 | 1.0 | 0.0 | 0.00 | 0.00 | 0.00 | 72 | 1006.9 |
| 20260505112059 | 68 | 45 | 1.0 | 0.0 | 0.00 | 0.00 | 0.00 | 74 | 1007.1 |
| 20260505111035 | 66 | 0 | 2.0 | 0.0 | 0.00 | 0.00 | 0.00 | 75 | 1007.1 |
| 20260505101831 | 66 | 135 | 2.0 | 0.0 | 0.00 | 0.00 | 0.00 | 72 | 1007.5 |
| 20260505100807 | 67 | 180 | 2.0 | 0.0 | 0.00 | 0.00 | 0.00 | 72 | 1007.6 |
| 20260505095742 | 68 | 90 | 2.0 | 0.0 | 0.00 | 0.00 | 0.00 | 67 | 1007.6 |
| 20260505094717 | 70 | 180 | 1.0 | 0.0 | 0.00 | 0.00 | 0.00 | 66 | 1007.7 |
| 20260505093653 | 69 | 135 | 1.0 | 0.0 | 0.00 | 0.00 | 0.00 | 71 | 1007.7 |
| 20260505092628 | 68 | 0 | 1.0 | 0.0 | 0.00 | 0.00 | 0.00 | 75 | 1007.8 |
| 20260505091603 | 67 | 45 | 1.0 | 0.0 | 0.00 | 0.00 | 0.00 | 84 | 1007.9 |
| 20260505090539 | 66 | 45 | 2.0 | 0.0 | 0.01 | 0.00 | 0.00 | 86 | 1008.0 |
| 20260505082400 | 63 | 90 | 0.0 | 0.0 | 0.00 | 0.00 | 0.00 | 10 | 1008.3 |
| 20260505081335 | 62 | 0 | 2.0 | 0.0 | 0.00 | 0.00 | 0.00 | 10 | 1008.4 |
| 20260505080310 | 61 | 135 | 1.0 | 0.0 | 0.00 | 0.00 | 0.00 | 10 | 1008.3 |
| 20260505075245 | 60 | 0 | 2.0 | 0.0 | 0.00 | 0.00 | 0.00 | 10 | 1008.4 |
| 20260505073156 | 60 | 180 | 1.0 | 0.0 | 0.00 | 0.00 | 0.00 | 10 | 1008.5 |
| 20260505072131 | 60 | 45 | 2.0 | 0.0 | 0.00 | 0.00 | 0.00 | 10 | 1008.5 |
| 20260505071106 | 58 | 135 | 2.0 | 0.0 | 0.00 | 0.00 | 0.00 | 10 | 1008.5 |
| 20260505065017 | 57 | 270 | 1.0 | 0.0 | 0.00 | 0.00 | 0.00 | 10 | 1008.4 |
| 20260505062927 | 56 | 3.0 | 0.0 | 0.00 | 0.00 | 0.00 | 10 | 1008.2 | |
| 20260505061902 | 56 | 90 | 2.0 | 0.0 | 0.00 | 0.00 | 0.00 | 10 | 1008.3 |
| 20260505060837 | 56 | 135 | 1.0 | 0.0 | 0.00 | 0.00 | 0.00 | 10 | 1008.4 |
| 20260505054748 | 55 | 45 | 1.0 | 0.0 | 0.00 | 0.00 | 0.00 | 10 | 1008.4 |
| 20260505053723 | 54 | 45 | 4.0 | 0.0 | 0.00 | 0.00 | 0.00 | 10 | 1008.5 |
| 20260505052658 | 54 | 90 | 1.0 | 0.0 | 0.00 | 0.00 | 0.00 | 10 | 1008.3 |
| 20260505041404 | 52 | 45 | 1.0 | 0.0 | 0.00 | 0.00 | 0.00 | 10 | 1008.7 |
| 20260505040340 | 52 | 270 | 1.0 | 0.0 | 0.00 | 0.00 | 0.00 | 10 | 1008.7 |